Malta, Montana
Current Conditions -  °F | °C
As of 1:53 PM on Tuesday 27 Jan 2015 (Local Time) from KGGW Reporting Station
Clear Clear  
Wind Chill: 51°   Ceiling: Unl
Heat Index: 51°   Visibility: 10mi
Dew Point: 35°   Wind: 0mph
Humidity: 54%   Direction: NA
Pressure: 29.8"   Gusts: NA
Location:  48.36°N, 107.87°W
Report Text: KGGW 272053Z AUTO 00000KT 10SM CLR 11/02 A2980 RMK AO2 SLP107 T01060017 58018
Loading
Personal Weather Stations






























Interactive Weather Map New forecast layout! Learn more

10-Day Weather Forecast

Advertisements
Track Severe Weather on mobile